createdAt,value
2019-01-04T00:00:01.117Z,83.35
2019-01-04T00:01:06.668Z,83.29
2019-01-04T00:01:45.131Z,83.19
2019-01-04T00:02:21.840Z,82.92
2019-01-04T00:02:58.591Z,83.02
2019-01-04T00:03:35.576Z,83.10
2019-01-04T00:04:16.952Z,83.10
2019-01-04T00:04:53.184Z,83.22
2019-01-04T00:05:29.846Z,83.05
2019-01-04T00:06:06.461Z,82.91
2019-01-04T00:06:43.291Z,81.87
2019-01-04T00:07:19.882Z,81.77
2019-01-04T00:07:56.804Z,81.57
2019-01-04T00:08:33.150Z,81.54
2019-01-04T00:09:09.304Z,81.69
2019-01-04T00:09:45.545Z,81.71
2019-01-04T00:10:21.703Z,81.77
2019-01-04T00:10:57.936Z,82.08
2019-01-04T00:11:34.186Z,82.28
2019-01-04T00:12:10.549Z,82.27
2019-01-04T00:12:46.794Z,82.41
2019-01-04T00:13:23.076Z,82.69
2019-01-04T00:14:01.028Z,82.47
2019-01-04T00:14:37.727Z,82.27
2019-01-04T00:15:13.992Z,81.84
2019-01-04T00:15:50.098Z,81.77
2019-01-04T00:16:26.361Z,81.75
2019-01-04T00:17:03.215Z,81.39
2019-01-04T00:17:39.679Z,81.32
2019-01-04T00:18:16.462Z,81.12
2019-01-04T00:18:53.214Z,81.15
2019-01-04T00:19:29.913Z,81.19
2019-01-04T00:20:06.638Z,81.42
2019-01-04T00:20:43.364Z,81.57
2019-01-04T00:21:20.134Z,81.49
2019-01-04T00:21:56.914Z,81.30
2019-01-04T00:22:33.020Z,81.45
2019-01-04T00:23:09.741Z,81.46
2019-01-04T00:23:46.531Z,81.52
2019-01-04T00:24:23.400Z,81.64
2019-01-04T00:25:00.235Z,81.66
2019-01-04T00:25:36.491Z,81.66
2019-01-04T00:26:12.973Z,81.55
2019-01-04T00:26:49.784Z,80.96
2019-01-04T00:27:26.508Z,80.77
2019-01-04T00:28:03.286Z,80.54
2019-01-04T00:28:40.099Z,80.34
2019-01-04T00:29:16.663Z,80.27
2019-01-04T00:29:53.541Z,80.42
2019-01-04T00:30:30.448Z,81.00
2019-01-04T00:31:07.568Z,80.67
2019-01-04T00:31:43.943Z,79.93
2019-01-04T00:32:20.685Z,79.80
2019-01-04T00:32:57.311Z,79.48
2019-01-04T00:33:34.128Z,79.57
2019-01-04T00:34:11.003Z,79.53
2019-01-04T00:34:47.634Z,79.55
2019-01-04T00:35:24.364Z,79.45
2019-01-04T00:36:00.926Z,79.31
2019-01-04T00:36:38.107Z,79.21
2019-01-04T00:37:15.022Z,79.02
2019-01-04T00:37:51.925Z,78.83
2019-01-04T00:38:28.607Z,79.12
2019-01-04T00:39:07.152Z,78.90
2019-01-04T00:39:43.914Z,78.76
2019-01-04T00:40:20.179Z,78.83
2019-01-04T00:40:56.905Z,78.80
2019-01-04T00:41:35.033Z,78.86
2019-01-04T00:42:11.362Z,78.67
2019-01-04T00:42:47.417Z,78.61
2019-01-04T00:43:23.476Z,78.45
2019-01-04T00:43:59.483Z,78.45
2019-01-04T00:44:38.635Z,78.51
2019-01-04T00:45:14.780Z,78.55
2019-01-04T00:45:51.498Z,78.95
2019-01-04T00:46:28.260Z,78.91
2019-01-04T00:47:05.066Z,78.81
2019-01-04T00:47:41.464Z,78.76
2019-01-04T00:48:17.738Z,78.87
2019-01-04T00:48:55.512Z,78.71
2019-01-04T00:49:32.372Z,78.51
2019-01-04T00:50:09.334Z,78.32
2019-01-04T00:50:45.899Z,78.21
2019-01-04T00:51:23.164Z,78.14
2019-01-04T00:51:59.812Z,78.25
2019-01-04T00:52:36.338Z,78.20
2019-01-04T00:53:13.349Z,78.12
2019-01-04T00:53:50.115Z,77.95
2019-01-04T00:54:27.012Z,77.82
2019-01-04T00:55:14.823Z,77.72
2019-01-04T00:56:33.148Z,77.72
2019-01-04T00:57:32.521Z,77.61
2019-01-04T00:58:44.109Z,77.30
2019-01-04T00:59:57.544Z,77.12
2019-01-04T01:01:33.004Z,77.22
2019-01-04T01:02:43.036Z,76.84
2019-01-04T01:04:13.404Z,76.67
2019-01-04T01:05:43.530Z,76.74
2019-01-04T01:06:57.703Z,76.66
2019-01-04T01:08:12.347Z,76.64
2019-01-04T01:09:24.557Z,76.67
2019-01-04T01:10:35.722Z,77.07
2019-01-04T01:11:51.137Z,76.68
2019-01-04T01:13:13.270Z,76.76
2019-01-04T01:14:54.189Z,76.74
2019-01-04T01:16:09.295Z,76.18
2019-01-04T01:17:38.230Z,76.22
2019-01-04T01:19:16.186Z,75.92
2019-01-04T01:20:17.002Z,75.74
2019-01-04T01:21:17.682Z,75.14
2019-01-04T01:22:35.554Z,75.28
2019-01-04T01:23:52.368Z,75.34
2019-01-04T01:25:11.039Z,75.37
2019-01-04T01:26:23.845Z,76.13
2019-01-04T01:27:33.735Z,75.86
2019-01-04T01:29:08.560Z,76.01
2019-01-04T01:30:29.605Z,75.89
2019-01-04T01:31:39.231Z,75.14
2019-01-04T01:33:03.533Z,74.52
2019-01-04T01:34:13.959Z,73.74
2019-01-04T01:35:32.020Z,73.90
2019-01-04T01:36:27.775Z,74.14
2019-01-04T01:37:51.449Z,74.83
2019-01-04T01:39:02.601Z,74.89
2019-01-04T01:40:49.191Z,75.17
2019-01-04T01:42:01.172Z,74.67
2019-01-04T01:43:24.941Z,74.48
2019-01-04T01:44:32.935Z,74.59
2019-01-04T01:46:03.696Z,74.78
2019-01-04T01:47:06.587Z,75.00
2019-01-04T01:47:50.489Z,75.26
2019-01-04T01:48:53.302Z,75.06
2019-01-04T01:49:58.461Z,74.43
2019-01-04T01:51:14.345Z,74.02
2019-01-04T01:52:02.468Z,73.95
2019-01-04T01:52:43.547Z,73.63
2019-01-04T01:53:19.591Z,73.57
2019-01-04T01:53:55.954Z,73.61
2019-01-04T01:54:32.208Z,73.78
2019-01-04T01:55:09.944Z,73.84
2019-01-04T01:55:46.258Z,73.83
2019-01-04T01:56:22.732Z,73.35
2019-01-04T01:56:58.908Z,73.34
2019-01-04T01:57:35.128Z,73.39
2019-01-04T01:58:11.241Z,73.39
2019-01-04T01:58:47.881Z,73.33
2019-01-04T01:59:24.115Z,73.28
2019-01-04T02:00:05.316Z,73.32
2019-01-04T02:00:41.706Z,73.42
2019-01-04T02:01:18.123Z,73.46
2019-01-04T02:01:57.886Z,73.48
2019-01-04T02:02:36.324Z,73.40
2019-01-04T02:03:12.473Z,73.33
2019-01-04T02:03:48.726Z,73.35
2019-01-04T02:04:25.057Z,73.31
2019-01-04T02:05:01.232Z,73.32
2019-01-04T02:05:37.332Z,73.44
2019-01-04T02:06:13.576Z,73.47
2019-01-04T02:06:49.683Z,73.39
2019-01-04T02:07:25.990Z,72.94
2019-01-04T02:08:02.091Z,72.59
2019-01-04T02:08:38.132Z,72.44
2019-01-04T02:09:14.627Z,72.49
2019-01-04T02:09:50.807Z,72.86
2019-01-04T02:10:27.220Z,73.01
2019-01-04T02:11:03.350Z,73.00
2019-01-04T02:11:41.232Z,72.97
2019-01-04T02:12:18.920Z,72.85
2019-01-04T02:12:55.180Z,72.44
2019-01-04T02:13:31.482Z,72.23
2019-01-04T02:14:07.592Z,72.42
2019-01-04T02:14:43.912Z,72.54
2019-01-04T02:15:20.190Z,72.58
2019-01-04T02:15:56.796Z,72.47
2019-01-04T02:16:34.501Z,72.48
2019-01-04T02:17:12.160Z,72.53
2019-01-04T02:17:48.807Z,72.56
2019-01-04T02:18:26.810Z,72.68
2019-01-04T02:19:02.927Z,72.74
2019-01-04T02:19:39.189Z,72.96
2019-01-04T02:20:15.315Z,73.05
2019-01-04T02:20:51.722Z,73.22
2019-01-04T02:21:28.087Z,73.21
2019-01-04T02:22:04.572Z,73.18
2019-01-04T02:22:40.591Z,73.24
2019-01-04T02:23:16.801Z,73.35
2019-01-04T02:23:53.216Z,73.50
2019-01-04T02:24:29.495Z,73.67
2019-01-04T02:25:05.894Z,73.73
2019-01-04T02:25:42.218Z,73.68
2019-01-04T02:26:18.656Z,73.56
2019-01-04T02:26:55.251Z,73.52
2019-01-04T02:27:33.091Z,73.53
2019-01-04T02:28:09.338Z,73.59
2019-01-04T02:28:45.616Z,73.63
2019-01-04T02:29:21.869Z,73.62
2019-01-04T02:30:01.196Z,73.66
2019-01-04T02:30:37.425Z,73.74
2019-01-04T02:31:13.805Z,73.87
2019-01-04T02:31:50.045Z,73.86
2019-01-04T02:32:27.921Z,73.83
2019-01-04T02:33:04.214Z,73.74
2019-01-04T02:33:40.724Z,73.71
2019-01-04T02:34:19.624Z,73.62
2019-01-04T02:34:55.855Z,73.56
2019-01-04T02:35:33.740Z,73.61
2019-01-04T02:36:09.959Z,73.56
2019-01-04T02:36:46.272Z,73.13
2019-01-04T02:37:22.570Z,73.06
2019-01-04T02:37:58.974Z,72.96
2019-01-04T02:38:35.187Z,72.69
2019-01-04T02:39:13.168Z,72.45
2019-01-04T02:39:49.299Z,72.37
2019-01-04T02:40:27.125Z,72.24
2019-01-04T02:41:04.925Z,72.39
2019-01-04T02:41:42.682Z,72.50
2019-01-04T02:42:18.940Z,72.48
2019-01-04T02:42:55.463Z,72.47
2019-01-04T02:43:32.228Z,72.52
2019-01-04T02:44:08.457Z,72.67
2019-01-04T02:44:44.862Z,72.91
2019-01-04T02:45:21.022Z,72.99
2019-01-04T02:45:57.173Z,72.74
2019-01-04T02:46:33.323Z,72.52
2019-01-04T02:47:09.685Z,72.30
2019-01-04T02:47:45.766Z,72.12
2019-01-04T02:48:22.229Z,72.07
2019-01-04T02:48:58.519Z,72.28
2019-01-04T02:49:34.730Z,72.22
2019-01-04T02:50:10.823Z,71.92
2019-01-04T02:50:46.794Z,71.71
2019-01-04T02:51:22.905Z,71.72
2019-01-04T02:51:59.224Z,71.83
2019-01-04T02:52:35.357Z,71.76
2019-01-04T02:53:11.460Z,71.53
2019-01-04T02:53:47.904Z,71.69
2019-01-04T02:54:24.263Z,71.75
2019-01-04T02:55:00.466Z,71.84
2019-01-04T02:55:36.626Z,72.05
2019-01-04T02:56:12.807Z,72.02
2019-01-04T02:56:48.927Z,71.82
2019-01-04T02:57:25.200Z,71.74
2019-01-04T02:58:02.814Z,71.83
2019-01-04T02:58:39.042Z,71.77
2019-01-04T02:59:15.307Z,71.73
2019-01-04T02:59:52.957Z,71.83
2019-01-04T03:00:29.202Z,71.72
2019-01-04T03:01:05.610Z,71.41
2019-01-04T03:01:41.816Z,70.96
2019-01-04T03:02:18.092Z,70.58
2019-01-04T03:02:54.363Z,70.55
2019-01-04T03:03:30.518Z,70.53
2019-01-04T03:04:06.611Z,70.62
2019-01-04T03:04:42.701Z,70.66
2019-01-04T03:05:18.800Z,70.76
2019-01-04T03:05:55.012Z,70.79
2019-01-04T03:06:31.306Z,70.74
2019-01-04T03:07:07.436Z,70.48
2019-01-04T03:07:44.021Z,70.19
2019-01-04T03:08:20.254Z,70.33
2019-01-04T03:08:56.362Z,70.16
2019-01-04T03:09:32.673Z,69.59
2019-01-04T03:10:09.101Z,69.54
2019-01-04T03:10:45.217Z,69.52
2019-01-04T03:11:21.419Z,69.42
2019-01-04T03:11:57.501Z,69.14
2019-01-04T03:12:33.771Z,69.27
2019-01-04T03:13:10.031Z,69.35
2019-01-04T03:13:46.310Z,69.62
2019-01-04T03:14:22.718Z,69.33
2019-01-04T03:14:59.245Z,69.40
2019-01-04T03:15:37.133Z,69.31
2019-01-04T03:16:13.470Z,69.03
2019-01-04T03:16:49.799Z,68.87
2019-01-04T03:17:25.960Z,68.77
2019-01-04T03:18:02.203Z,68.65
2019-01-04T03:18:38.336Z,68.60
2019-01-04T03:19:14.733Z,68.63
2019-01-04T03:19:50.837Z,68.59
2019-01-04T03:20:27.006Z,68.53
2019-01-04T03:21:03.356Z,68.53
2019-01-04T03:21:39.745Z,68.53
2019-01-04T03:22:16.049Z,68.55
2019-01-04T03:22:52.246Z,68.55
2019-01-04T03:23:28.633Z,68.55
2019-01-04T03:24:04.803Z,68.59
2019-01-04T03:24:41.346Z,68.68
2019-01-04T03:25:17.586Z,68.74
2019-01-04T03:25:53.867Z,68.54
2019-01-04T03:26:30.027Z,68.33
2019-01-04T03:27:06.401Z,68.22
2019-01-04T03:27:42.496Z,68.04
2019-01-04T03:28:18.713Z,67.89
2019-01-04T03:28:54.892Z,67.81
2019-01-04T03:29:32.959Z,67.83
2019-01-04T03:30:10.707Z,67.70
2019-01-04T03:30:46.870Z,67.64
2019-01-04T03:31:22.938Z,67.28
2019-01-04T03:31:59.158Z,66.23
2019-01-04T03:32:35.410Z,65.51
2019-01-04T03:33:11.732Z,65.88
2019-01-04T03:33:48.036Z,65.43
2019-01-04T03:34:24.310Z,65.44
2019-01-04T03:35:00.352Z,65.44
2019-01-04T03:35:36.777Z,66.12
2019-01-04T03:36:12.900Z,66.50
2019-01-04T03:36:49.133Z,66.05
2019-01-04T03:37:25.273Z,65.84
2019-01-04T03:38:01.553Z,65.75
2019-01-04T03:38:37.828Z,65.06
2019-01-04T03:39:13.945Z,65.06
2019-01-04T03:39:50.365Z,65.20
2019-01-04T03:40:26.458Z,65.46
2019-01-04T03:41:02.775Z,65.46
2019-01-04T03:41:39.068Z,64.65
2019-01-04T03:42:15.202Z,63.86
2019-01-04T03:42:51.750Z,63.96
2019-01-04T03:43:28.041Z,63.96
2019-01-04T03:44:04.332Z,64.18
2019-01-04T03:44:40.663Z,64.36
2019-01-04T03:45:16.937Z,64.36
2019-01-04T03:45:53.122Z,64.36
2019-01-04T03:46:29.237Z,64.29
2019-01-04T03:47:05.758Z,63.56
2019-01-04T03:47:42.107Z,64.77
2019-01-04T03:48:18.229Z,64.24
2019-01-04T03:48:54.710Z,63.59
2019-01-04T03:49:31.124Z,63.66
2019-01-04T03:50:07.667Z,63.66
2019-01-04T03:50:44.097Z,63.46
2019-01-04T03:51:20.489Z,63.69
2019-01-04T03:51:56.783Z,63.69
2019-01-04T03:52:33.048Z,63.58
2019-01-04T03:53:09.143Z,63.16
2019-01-04T03:53:45.202Z,63.58
2019-01-04T03:54:21.735Z,64.76
2019-01-04T03:54:58.283Z,64.47
2019-01-04T03:55:34.415Z,64.18
2019-01-04T03:56:10.762Z,64.18
2019-01-04T03:56:46.932Z,64.76
2019-01-04T03:57:23.170Z,64.84
2019-01-04T03:57:59.643Z,64.72
2019-01-04T03:58:36.059Z,64.27
2019-01-04T03:59:12.401Z,64.27
2019-01-04T03:59:48.700Z,63.54
2019-01-04T04:00:25.017Z,63.54
2019-01-04T04:01:01.347Z,62.85
2019-01-04T04:01:37.597Z,62.85
2019-01-04T04:02:13.956Z,63.78
2019-01-04T04:02:50.446Z,63.44
2019-01-04T04:03:26.743Z,63.44
2019-01-04T04:04:03.026Z,63.87
2019-01-04T04:04:39.221Z,63.03
2019-01-04T04:05:15.652Z,63.03
2019-01-04T04:05:51.961Z,63.25
2019-01-04T04:06:28.349Z,63.03
2019-01-04T04:07:04.564Z,63.15
2019-01-04T04:07:40.623Z,63.04
2019-01-04T04:08:17.000Z,63.09
2019-01-04T04:08:53.160Z,63.09
2019-01-04T04:09:29.371Z,62.53
2019-01-04T04:10:05.803Z,62.57
2019-01-04T04:10:41.967Z,62.61
2019-01-04T04:11:18.280Z,62.78
2019-01-04T04:11:54.420Z,62.76
2019-01-04T04:12:32.379Z,62.86
2019-01-04T04:13:08.545Z,62.86
2019-01-04T04:13:44.859Z,63.35
2019-01-04T04:14:21.614Z,63.53
2019-01-04T04:14:57.953Z,63.29
2019-01-04T04:15:34.611Z,63.48
2019-01-04T04:16:10.858Z,63.70
2019-01-04T04:16:48.649Z,63.59
2019-01-04T04:17:24.797Z,63.59
2019-01-04T04:18:01.135Z,63.95
2019-01-04T04:18:37.164Z,64.14
2019-01-04T04:19:13.332Z,64.23
2019-01-04T04:19:49.671Z,64.82
2019-01-04T04:20:25.848Z,64.82
2019-01-04T04:21:03.566Z,64.44
2019-01-04T04:21:39.751Z,64.52
2019-01-04T04:22:16.101Z,64.88
2019-01-04T04:22:54.634Z,64.57
2019-01-04T04:23:30.968Z,64.57
2019-01-04T04:24:07.208Z,65.42
2019-01-04T04:24:43.578Z,65.39
2019-01-04T04:25:19.896Z,65.39
2019-01-04T04:25:57.193Z,66.79
2019-01-04T04:26:33.800Z,68.23
2019-01-04T04:27:10.031Z,68.23
2019-01-04T04:27:46.183Z,69.27
2019-01-04T04:28:22.708Z,70.02
2019-01-04T04:28:58.892Z,70.32
2019-01-04T04:29:35.418Z,70.32
2019-01-04T04:30:11.734Z,70.57
2019-01-04T04:30:48.028Z,70.55
2019-01-04T04:31:24.333Z,70.56
2019-01-04T04:32:00.762Z,70.42
2019-01-04T04:32:37.129Z,70.42
2019-01-04T04:33:13.673Z,70.89
2019-01-04T04:33:50.055Z,71.29
2019-01-04T04:34:26.356Z,71.36
2019-01-04T04:35:02.552Z,70.54
2019-01-04T04:35:38.754Z,70.40
2019-01-04T04:36:14.902Z,70.40
2019-01-04T04:36:51.025Z,70.30
2019-01-04T04:37:27.493Z,70.40
2019-01-04T04:38:03.629Z,70.40
2019-01-04T04:38:39.845Z,69.90
2019-01-04T04:39:15.967Z,69.93
2019-01-04T04:39:52.081Z,70.05
2019-01-04T04:40:30.804Z,70.25
2019-01-04T04:41:07.020Z,70.34
2019-01-04T04:41:43.156Z,69.67
2019-01-04T04:42:19.605Z,69.67
2019-01-04T04:42:55.902Z,68.03
2019-01-04T04:43:32.529Z,67.79
2019-01-04T04:44:08.726Z,67.79
2019-01-04T04:44:44.823Z,67.63
2019-01-04T04:45:21.286Z,67.99
2019-01-04T04:45:57.391Z,67.99
2019-01-04T04:46:33.727Z,67.41
2019-01-04T04:47:09.857Z,67.39
2019-01-04T04:47:47.764Z,67.39
2019-01-04T04:48:24.061Z,66.64
2019-01-04T04:49:00.194Z,66.64
2019-01-04T04:49:36.712Z,66.74
2019-01-04T04:50:14.469Z,66.43
2019-01-04T04:50:50.967Z,66.90
2019-01-04T04:51:27.267Z,66.90
2019-01-04T04:52:03.413Z,66.01
2019-01-04T04:52:39.577Z,65.58
2019-01-04T04:53:15.683Z,65.43
2019-01-04T04:53:52.004Z,65.43
2019-01-04T04:54:28.171Z,65.50
2019-01-04T04:55:04.298Z,65.50
2019-01-04T04:55:40.477Z,65.12
2019-01-04T04:56:16.606Z,64.23
2019-01-04T04:56:52.734Z,63.81
2019-01-04T04:57:28.978Z,63.57
2019-01-04T04:58:05.115Z,63.51
2019-01-04T04:58:42.760Z,63.28
2019-01-04T04:59:18.965Z,62.43
2019-01-04T04:59:55.378Z,62.09
2019-01-04T05:00:33.094Z,61.75
2019-01-04T05:01:09.476Z,61.75
2019-01-04T05:01:45.961Z,61.36
2019-01-04T05:02:22.272Z,61.08
2019-01-04T05:02:58.419Z,61.03
2019-01-04T05:03:34.579Z,61.36
2019-01-04T05:04:10.843Z,61.25
2019-01-04T05:04:47.347Z,61.19
2019-01-04T05:05:23.742Z,61.29
2019-01-04T05:05:59.845Z,61.12
2019-01-04T05:06:36.297Z,61.28
2019-01-04T05:07:12.396Z,61.47
2019-01-04T05:07:49.455Z,61.65
2019-01-04T05:08:25.525Z,61.94
2019-01-04T05:09:01.684Z,62.59
2019-01-04T05:09:38.061Z,62.68
2019-01-04T05:10:14.313Z,62.80
2019-01-04T05:10:50.635Z,62.90
2019-01-04T05:11:26.973Z,62.93
2019-01-04T05:12:03.126Z,63.29
2019-01-04T05:12:39.546Z,63.11
2019-01-04T05:13:15.898Z,62.58
2019-01-04T05:13:52.277Z,62.31
2019-01-04T05:14:28.765Z,62.52
2019-01-04T05:15:04.915Z,62.61
2019-01-04T05:15:41.134Z,62.61
2019-01-04T05:16:17.351Z,62.52
2019-01-04T05:16:53.585Z,62.68
2019-01-04T05:17:30.062Z,61.79
2019-01-04T05:18:06.403Z,60.86
2019-01-04T05:18:42.617Z,60.86
2019-01-04T05:19:18.894Z,60.83
2019-01-04T05:19:55.198Z,60.74
2019-01-04T05:20:31.287Z,60.87
2019-01-04T05:21:07.571Z,61.34
2019-01-04T05:21:43.839Z,61.44
2019-01-04T05:22:20.502Z,61.13
2019-01-04T05:22:56.751Z,60.85
2019-01-04T05:23:32.943Z,60.84
2019-01-04T05:24:09.246Z,61.18
2019-01-04T05:24:45.336Z,61.29
2019-01-04T05:25:21.614Z,61.35
2019-01-04T05:25:59.230Z,61.32
2019-01-04T05:26:35.546Z,61.30
2019-01-04T05:27:11.645Z,60.83
2019-01-04T05:27:47.772Z,60.99
2019-01-04T05:28:24.092Z,60.98
2019-01-04T05:29:00.424Z,61.83
2019-01-04T05:29:36.784Z,61.93
2019-01-04T05:30:13.267Z,61.96
2019-01-04T05:30:49.430Z,62.07
2019-01-04T05:31:25.784Z,62.00
2019-01-04T05:32:01.933Z,61.20
2019-01-04T05:32:38.159Z,60.54
2019-01-04T05:33:14.270Z,60.58
2019-01-04T05:33:50.874Z,60.42
2019-01-04T05:34:26.946Z,60.13
2019-01-04T05:35:03.128Z,60.46
2019-01-04T05:35:39.352Z,60.62
2019-01-04T05:36:15.692Z,60.39
2019-01-04T05:36:51.947Z,60.60
2019-01-04T05:37:28.150Z,60.61
2019-01-04T05:38:04.440Z,60.08
2019-01-04T05:38:40.547Z,60.32
2019-01-04T05:39:16.941Z,60.78
2019-01-04T05:39:53.247Z,61.18
2019-01-04T05:40:29.700Z,61.05
2019-01-04T05:41:06.027Z,60.98
2019-01-04T05:41:43.442Z,60.45
2019-01-04T05:42:19.548Z,60.66
2019-01-04T05:42:55.749Z,60.85
2019-01-04T05:43:31.910Z,60.62
2019-01-04T05:44:08.217Z,60.43
2019-01-04T05:44:44.645Z,60.39
2019-01-04T05:45:20.832Z,60.57
2019-01-04T05:45:57.104Z,60.46
2019-01-04T05:46:33.404Z,60.37
2019-01-04T05:47:09.732Z,60.32
2019-01-04T05:47:46.041Z,59.85
2019-01-04T05:48:23.859Z,59.51
2019-01-04T05:49:00.145Z,58.76
2019-01-04T05:49:37.865Z,58.40
2019-01-04T05:50:14.116Z,58.61
2019-01-04T05:50:50.276Z,59.13
2019-01-04T05:51:26.433Z,59.22
2019-01-04T05:52:02.770Z,59.40
2019-01-04T05:52:38.863Z,59.49
2019-01-04T05:53:15.274Z,59.31
2019-01-04T05:53:51.799Z,58.81
2019-01-04T05:54:28.239Z,58.65
2019-01-04T05:55:05.830Z,59.07
2019-01-04T05:55:42.116Z,58.74
2019-01-04T05:56:18.779Z,58.64
2019-01-04T05:56:54.923Z,58.60
2019-01-04T05:57:31.373Z,58.66
2019-01-04T05:58:07.486Z,58.92
2019-01-04T05:58:45.156Z,59.17
2019-01-04T05:59:21.324Z,59.42
2019-01-04T05:59:57.511Z,59.80
2019-01-04T06:00:33.839Z,59.51
2019-01-04T06:01:09.952Z,59.38
2019-01-04T06:01:46.154Z,59.05
2019-01-04T06:02:22.290Z,57.60
2019-01-04T06:02:58.495Z,56.70
2019-01-04T06:03:34.797Z,56.99
2019-01-04T06:04:10.937Z,57.21
2019-01-04T06:04:47.423Z,57.77
2019-01-04T06:05:23.884Z,57.82
2019-01-04T06:06:00.182Z,57.96
2019-01-04T06:06:36.777Z,58.45
2019-01-04T06:07:12.891Z,58.74
2019-01-04T06:07:49.197Z,58.74
2019-01-04T06:08:25.454Z,57.92
2019-01-04T06:09:01.760Z,57.92
2019-01-04T06:09:37.982Z,57.60
2019-01-04T06:10:14.287Z,57.26
2019-01-04T06:10:50.545Z,56.74
2019-01-04T06:11:26.651Z,56.65
2019-01-04T06:12:02.891Z,56.63
2019-01-04T06:12:39.073Z,57.24
2019-01-04T06:13:15.238Z,57.24
2019-01-04T06:13:51.646Z,57.33
2019-01-04T06:14:28.003Z,57.58
2019-01-04T06:15:04.390Z,57.65
2019-01-04T06:15:40.548Z,57.69
2019-01-04T06:16:16.859Z,57.79
2019-01-04T06:16:53.019Z,58.11
2019-01-04T06:17:29.224Z,58.57
2019-01-04T06:18:05.722Z,58.75
2019-01-04T06:18:41.917Z,59.12
2019-01-04T06:19:19.776Z,59.53
2019-01-04T06:19:55.916Z,59.62
2019-01-04T06:20:32.017Z,59.39
2019-01-04T06:21:08.240Z,59.30
2019-01-04T06:21:44.630Z,58.46
2019-01-04T06:22:20.768Z,58.46
2019-01-04T06:22:56.878Z,59.64
2019-01-04T06:23:33.183Z,60.31
2019-01-04T06:24:09.620Z,60.31
2019-01-04T06:24:46.136Z,60.44
2019-01-04T06:25:22.277Z,60.44
2019-01-04T06:25:58.723Z,58.85
2019-01-04T06:26:34.840Z,58.85
2019-01-04T06:27:12.507Z,59.50
2019-01-04T06:27:48.774Z,59.55
2019-01-04T06:28:24.911Z,59.06
2019-01-04T06:29:01.094Z,59.56
2019-01-04T06:29:37.192Z,59.02
2019-01-04T06:30:13.442Z,59.05
2019-01-04T06:30:49.821Z,59.05
2019-01-04T06:31:25.991Z,60.77
2019-01-04T06:32:03.854Z,60.62
2019-01-04T06:32:40.251Z,60.62
2019-01-04T06:33:18.062Z,64.32
2019-01-04T06:33:55.947Z,64.67
2019-01-04T06:34:32.291Z,66.96
2019-01-04T06:35:08.738Z,66.96
2019-01-04T06:35:45.134Z,68.89
2019-01-04T06:36:21.426Z,68.89
2019-01-04T06:36:57.831Z,69.58
2019-01-04T06:37:34.260Z,69.74
2019-01-04T06:38:10.673Z,69.96
2019-01-04T06:38:46.892Z,71.70
2019-01-04T06:39:23.062Z,71.70
2019-01-04T06:39:59.591Z,71.54
2019-01-04T06:40:35.705Z,71.84
2019-01-04T06:41:11.818Z,71.85
2019-01-04T06:41:47.918Z,71.88
2019-01-04T06:42:24.105Z,72.01
2019-01-04T06:43:00.363Z,72.19
2019-01-04T06:43:36.616Z,72.41
2019-01-04T06:44:12.987Z,72.55
2019-01-04T06:44:49.202Z,72.71
2019-01-04T06:45:26.909Z,73.10
2019-01-04T06:46:02.995Z,73.65
2019-01-04T06:47:13.439Z,73.65
2019-01-04T06:47:49.654Z,74.00
2019-01-04T06:48:25.963Z,74.05
2019-01-04T06:49:02.276Z,74.04
2019-01-04T06:49:38.404Z,74.09
2019-01-04T06:50:14.483Z,74.11
2019-01-04T06:50:52.449Z,74.57
2019-01-04T06:51:28.899Z,74.82
2019-01-04T06:52:05.091Z,74.82
2019-01-04T06:52:41.233Z,74.12
2019-01-04T06:53:17.368Z,73.96
2019-01-04T06:53:55.077Z,73.87
2019-01-04T06:55:05.965Z,73.66
2019-01-04T06:55:56.868Z,73.66
2019-01-04T06:56:33.038Z,74.22
2019-01-04T06:57:09.148Z,74.66
2019-01-04T06:57:45.372Z,74.51
2019-01-04T06:58:21.594Z,74.70
2019-01-04T06:58:57.898Z,74.70
2019-01-04T06:59:34.343Z,73.81
2019-01-04T07:00:11.831Z,73.84
2019-01-04T07:00:48.121Z,73.99
2019-01-04T07:01:25.958Z,74.01
2019-01-04T07:02:02.344Z,73.42
2019-01-04T07:02:38.505Z,73.42
2019-01-04T07:03:15.038Z,72.45
2019-01-04T07:03:51.557Z,72.45
2019-01-04T07:04:27.848Z,72.72
2019-01-04T07:05:04.170Z,72.72
2019-01-04T07:05:40.825Z,72.37
2019-01-04T07:06:17.293Z,71.58
2019-01-04T07:06:53.582Z,71.69
2019-01-04T07:07:29.884Z,71.69
2019-01-04T07:08:06.329Z,70.95
2019-01-04T07:08:42.639Z,71.18
2019-01-04T07:09:18.860Z,71.53
2019-01-04T07:09:55.077Z,70.87
2019-01-04T07:10:31.430Z,70.87
2019-01-04T07:11:07.742Z,71.49
2019-01-04T07:11:44.262Z,71.42
2019-01-04T07:12:20.385Z,70.84
2019-01-04T07:12:58.104Z,69.76
2019-01-04T07:13:34.211Z,69.68
2019-01-04T07:14:10.368Z,69.10
2019-01-04T07:14:46.558Z,68.72
2019-01-04T07:15:22.811Z,68.72
2019-01-04T07:15:58.949Z,67.84
2019-01-04T07:16:35.306Z,68.04
2019-01-04T07:17:11.660Z,68.04
2019-01-04T07:17:47.821Z,68.40
2019-01-04T07:18:24.365Z,68.50
2019-01-04T07:19:00.537Z,68.32
2019-01-04T07:19:36.944Z,68.32
2019-01-04T07:20:13.469Z,68.30
2019-01-04T07:20:49.724Z,68.30
2019-01-04T07:21:26.235Z,67.79
2019-01-04T07:22:02.322Z,66.90
2019-01-04T07:22:38.459Z,66.90
2019-01-04T07:23:14.558Z,66.49
2019-01-04T07:23:50.920Z,65.69
2019-01-04T07:24:27.021Z,65.69
2019-01-04T07:25:03.265Z,65.56
2019-01-04T07:25:39.404Z,66.77
2019-01-04T07:26:15.792Z,66.77
2019-01-04T07:26:52.179Z,66.07
2019-01-04T07:27:28.443Z,65.90
2019-01-04T07:28:04.660Z,65.54
2019-01-04T07:28:40.924Z,65.68
2019-01-04T07:29:17.331Z,65.46
2019-01-04T07:29:53.623Z,65.16
2019-01-04T07:30:29.955Z,65.09
2019-01-04T07:31:06.210Z,64.94
2019-01-04T07:31:42.569Z,64.78
2019-01-04T07:32:18.769Z,64.59
2019-01-04T07:32:55.104Z,64.69
2019-01-04T07:33:31.362Z,64.69
2019-01-04T07:34:07.770Z,64.04
2019-01-04T07:34:43.866Z,64.51
2019-01-04T07:35:19.879Z,64.86
2019-01-04T07:35:56.207Z,64.64
2019-01-04T07:36:33.943Z,64.69
2019-01-04T07:37:10.592Z,64.45
2019-01-04T07:37:46.745Z,64.23
2019-01-04T07:38:22.920Z,63.89
2019-01-04T07:38:59.250Z,63.83
2019-01-04T07:39:35.469Z,63.76
2019-01-04T07:40:11.755Z,63.90
2019-01-04T07:40:47.930Z,64.15
2019-01-04T07:41:24.300Z,64.18
2019-01-04T07:42:00.450Z,64.07
2019-01-04T07:42:36.807Z,63.81
2019-01-04T07:43:16.472Z,63.71
2019-01-04T07:43:51.138Z,63.77
2019-01-04T07:44:27.412Z,63.70
2019-01-04T07:45:03.685Z,63.52
2019-01-04T07:45:39.930Z,62.92
2019-01-04T07:46:16.317Z,62.76
2019-01-04T07:46:52.564Z,62.72
2019-01-04T07:47:28.699Z,62.63
2019-01-04T07:48:04.895Z,61.53
2019-01-04T07:48:41.177Z,61.08
2019-01-04T07:49:17.597Z,60.98
2019-01-04T07:49:53.723Z,61.14
2019-01-04T07:50:29.872Z,61.37
2019-01-04T07:51:06.056Z,61.47
2019-01-04T07:51:42.394Z,61.64
2019-01-04T07:52:18.653Z,61.59
2019-01-04T07:52:54.763Z,61.74
2019-01-04T07:53:30.900Z,61.86
2019-01-04T07:54:07.022Z,61.72
2019-01-04T07:54:43.096Z,61.32
2019-01-04T07:55:19.213Z,61.14
2019-01-04T07:55:55.499Z,61.25
2019-01-04T07:56:31.863Z,61.40
2019-01-04T07:57:08.002Z,61.41
2019-01-04T07:57:44.118Z,61.33
2019-01-04T07:58:20.266Z,61.65
2019-01-04T07:58:56.642Z,61.66
2019-01-04T07:59:32.771Z,61.99
2019-01-04T08:00:11.966Z,62.02
2019-01-04T08:00:48.263Z,61.97
2019-01-04T08:01:25.962Z,61.74
2019-01-04T08:02:20.877Z,61.65
2019-01-04T08:02:59.407Z,61.58
2019-01-04T08:03:35.540Z,61.88
2019-01-04T08:04:11.638Z,61.86
2019-01-04T08:04:47.715Z,62.07
2019-01-04T08:05:30.385Z,62.07
2019-01-04T08:06:06.711Z,62.26
2019-01-04T08:06:44.450Z,62.19
2019-01-04T08:07:20.820Z,62.41
2019-01-04T08:07:57.446Z,62.58
2019-01-04T08:08:33.543Z,62.58
2019-01-04T08:09:09.851Z,62.27
2019-01-04T08:09:46.183Z,61.88
2019-01-04T08:10:22.316Z,61.54
2019-01-04T08:11:00.020Z,61.33
2019-01-04T08:11:36.168Z,61.17
2019-01-04T08:12:12.459Z,61.05
2019-01-04T08:12:48.634Z,61.21
2019-01-04T08:13:24.905Z,61.58
2019-01-04T08:14:00.963Z,61.69
2019-01-04T08:14:37.265Z,61.72
2019-01-04T08:15:13.555Z,61.71
2019-01-04T08:15:49.706Z,61.55
2019-01-04T08:16:26.046Z,61.28
2019-01-04T08:17:02.194Z,61.24
2019-01-04T08:17:38.399Z,61.60
2019-01-04T08:18:14.630Z,61.34
2019-01-04T08:18:50.795Z,61.34
2019-01-04T08:19:26.907Z,61.35
2019-01-04T08:20:04.580Z,61.45
2019-01-04T08:20:40.712Z,61.25
2019-01-04T08:21:16.878Z,61.33